Time;durP1;ratioP1;P1;durP2;ratioP2;P2;SDS_P1;SDS_P2;PMS_P1;PMS_P2;Temp;Humidity;BMP_temperature;BMP_pressure;BME280_temperature;BME280_humidity;BME280_pressure;Samples;Min_cycle;Max_cycle;Signal;HPM_P1;HPM_P2
2021/09/07 00:00:31;;;;;;;10.63;9.53;;;16.00;99.90;;;;;;5100720;28;20174;-84
2021/09/07 00:02:57;;;;;;;12.07;9.07;;;16.30;99.90;;;;;;5101023;28;20401;-84
2021/09/07 00:05:23;;;;;;;11.10;10.00;;;16.60;99.90;;;;;;5099763;28;20159;-85
2021/09/07 00:07:49;;;;;;;11.20;10.00;;;16.80;99.90;;;;;;5081858;28;20163;-84
2021/09/07 00:10:15;;;;;;;13.27;10.50;;;17.00;99.90;;;;;;5066363;28;20479;-84
2021/09/07 00:12:42;;;;;;;16.47;10.97;;;17.20;99.90;;;;;;5068682;28;20235;-85
2021/09/07 00:15:11;;;;;;;16.00;11.07;;;17.40;99.90;;;;;;5109111;28;20415;-85
2021/09/07 00:17:37;;;;;;;12.30;11.00;;;17.50;99.90;;;;;;5104368;28;20436;-84
2021/09/07 00:20:05;;;;;;;14.00;10.73;;;17.60;99.90;;;;;;5122222;28;20393;-84
2021/09/07 00:22:31;;;;;;;12.20;11.00;;;17.70;99.90;;;;;;5122355;28;20405;-84
2021/09/07 00:24:56;;;;;;;12.37;9.70;;;17.70;99.90;;;;;;5104491;28;20462;-84
2021/09/07 00:27:22;;;;;;;15.00;10.50;;;17.80;99.90;;;;;;5122252;28;20209;-84
2021/09/07 00:29:48;;;;;;;10.73;9.73;;;17.80;99.90;;;;;;5122191;28;20174;-84
2021/09/07 00:32:14;;;;;;;10.73;9.63;;;17.70;99.90;;;;;;5122009;28;20151;-84
2021/09/07 00:34:40;;;;;;;10.43;9.13;;;17.60;99.90;;;;;;5122165;28;20155;-84
2021/09/07 00:37:06;;;;;;;21.23;9.40;;;17.30;99.90;;;;;;5122063;28;20554;-84
2021/09/07 00:39:34;;;;;;;11.30;9.10;;;16.50;99.90;;;;;;5121965;28;20218;-85
2021/09/07 00:42:00;;;;;;;16.80;8.63;;;16.20;99.90;;;;;;5122119;28;20381;-84
2021/09/07 00:44:29;;;;;;;11.27;10.13;;;16.00;99.90;;;;;;5122040;28;20397;-84
2021/09/07 00:46:58;;;;;;;10.80;9.70;;;15.80;99.90;;;;;;5121989;28;20395;-83
2021/09/07 00:49:25;;;;;;;9.93;9.03;;;15.70;99.90;;;;;;5121977;28;20484;-84
2021/09/07 00:51:53;;;;;;;11.73;9.67;;;15.70;99.90;;;;;;5121844;28;20400;-83
2021/09/07 00:54:20;;;;;;;12.00;9.33;;;15.80;99.90;;;;;;5104246;28;20389;-83
2021/09/07 00:56:47;;;;;;;13.57;11.07;;;15.70;99.90;;;;;;5059967;28;20411;-85
2021/09/07 00:59:14;;;;;;;12.63;10.60;;;15.50;99.90;;;;;;5043377;28;20463;-83
2021/09/07 01:01:41;;;;;;;14.97;11.17;;;15.50;99.90;;;;;;5060002;28;20403;-85
2021/09/07 01:04:07;;;;;;;13.00;10.20;;;15.40;99.90;;;;;;5060000;28;20394;-84
2021/09/07 01:06:34;;;;;;;13.27;11.87;;;15.50;99.90;;;;;;5059915;28;20470;-84
2021/09/07 01:09:00;;;;;;;15.07;10.60;;;15.50;99.90;;;;;;5059898;28;20434;-84
2021/09/07 01:11:27;;;;;;;10.37;9.43;;;15.40;99.90;;;;;;5059654;28;20408;-83
2021/09/07 01:13:54;;;;;;;12.23;10.90;;;15.40;99.90;;;;;;5049426;28;20422;-85
2021/09/07 01:16:20;;;;;;;11.50;9.73;;;15.60;99.90;;;;;;5039770;28;20407;-85
2021/09/07 01:18:46;;;;;;;15.30;10.97;;;15.70;99.90;;;;;;5039685;28;20443;-85
2021/09/07 01:21:13;;;;;;;9.93;8.93;;;15.50;99.90;;;;;;5039541;28;20888;-85
2021/09/07 01:23:41;;;;;;;14.07;10.43;;;15.40;99.90;;;;;;5039515;28;20521;-85
2021/09/07 01:26:09;;;;;;;12.07;10.63;;;15.00;99.90;;;;;;5023547;28;20395;-85
2021/09/07 01:28:35;;;;;;;13.73;9.87;;;15.10;99.90;;;;;;5095408;28;20409;-85
2021/09/07 01:31:03;;;;;;;12.27;11.00;;;15.20;99.90;;;;;;5108638;28;20411;-85
2021/09/07 01:33:30;;;;;;;13.10;10.90;;;15.20;99.90;;;;;;5107737;28;20389;-86
2021/09/07 01:35:57;;;;;;;11.63;10.43;;;15.30;99.90;;;;;;5103289;28;20411;-85
2021/09/07 01:38:25;;;;;;;14.37;10.60;;;15.40;99.90;;;;;;5102594;28;20625;-85
2021/09/07 01:40:54;;;;;;;14.33;11.13;;;15.30;99.90;;;;;;5101955;28;20475;-85
2021/09/07 01:43:21;;;;;;;10.93;9.27;;;15.40;99.90;;;;;;5084220;28;20393;-85
2021/09/07 01:45:48;;;;;;;12.17;10.87;;;15.10;99.90;;;;;;5102658;28;20397;-85
2021/09/07 01:48:15;;;;;;;11.43;10.23;;;15.10;99.90;;;;;;5101661;28;20845;-85
2021/09/07 01:50:41;;;;;;;15.43;9.37;;;15.20;99.90;;;;;;5101699;28;20401;-85
2021/09/07 01:53:08;;;;;;;13.83;11.33;;;15.20;99.90;;;;;;5083891;28;20480;-86
2021/09/07 01:55:34;;;;;;;10.10;9.10;;;15.30;99.90;;;;;;5083399;28;20421;-85
2021/09/07 01:58:01;;;;;;;12.53;10.40;;;15.40;99.90;;;;;;5065981;28;20545;-85
2021/09/07 02:00:27;;;;;;;11.30;10.20;;;15.60;99.90;;;;;;5083854;28;20163;-85
2021/09/07 02:02:52;;;;;;;10.03;8.90;;;15.70;99.90;;;;;;5102272;28;20466;-85
2021/09/07 02:05:19;;;;;;;12.27;9.70;;;15.70;99.90;;;;;;5084081;28;20429;-85
2021/09/07 02:07:44;;;;;;;11.10;9.90;;;15.70;99.90;;;;;;5101468;28;20560;-85
2021/09/07 02:10:11;;;;;;;12.10;9.43;;;15.80;99.90;;;;;;5083572;28;20405;-85
2021/09/07 02:12:37;;;;;;;11.03;9.53;;;15.70;99.90;;;;;;5082794;28;20189;-85
2021/09/07 02:15:05;;;;;;;10.60;9.60;;;15.50;99.90;;;;;;5083311;28;20401;-85
2021/09/07 02:17:31;;;;;;;17.87;11.67;;;15.50;99.90;;;;;;5101472;28;20432;-86
2021/09/07 02:19:57;;;;;;;11.63;9.50;;;15.50;99.90;;;;;;5101267;28;20395;-84
2021/09/07 02:22:25;;;;;;;11.10;10.00;;;15.60;99.90;;;;;;5101421;28;20185;-84
2021/09/07 02:24:51;;;;;;;11.27;10.17;;;15.50;99.90;;;;;;5101312;28;20400;-85
2021/09/07 02:27:17;;;;;;;14.43;11.43;;;15.50;99.90;;;;;;5101501;28;20385;-85
2021/09/07 02:29:43;;;;;;;12.10;10.40;;;15.50;99.90;;;;;;5100780;28;20429;-85
2021/09/07 02:32:10;;;;;;;11.90;10.67;;;15.50;99.90;;;;;;5100692;28;20436;-86
2021/09/07 02:34:36;;;;;;;11.47;10.27;;;15.40;99.90;;;;;;5100787;28;20733;-85
2021/09/07 02:37:02;;;;;;;12.50;10.17;;;15.30;99.90;;;;;;5100768;28;20394;-86
2021/09/07 02:39:31;;;;;;;16.40;11.00;;;15.20;99.90;;;;;;5100527;28;20251;-84
2021/09/07 02:41:58;;;;;;;13.47;10.47;;;15.30;99.90;;;;;;5112404;28;20473;-84
2021/09/07 02:44:23;;;;;;;11.83;9.93;;;15.20;99.90;;;;;;5119488;28;20424;-83
2021/09/07 02:46:50;;;;;;;11.70;10.27;;;15.20;99.90;;;;;;5102094;28;20396;-84
2021/09/07 02:49:16;;;;;;;12.10;8.60;;;15.20;99.90;;;;;;5101885;28;20234;-84
2021/09/07 02:51:43;;;;;;;11.47;10.10;;;15.00;99.90;;;;;;5119743;28;20413;-83
2021/09/07 02:54:09;;;;;;;10.90;9.73;;;15.00;99.90;;;;;;5119130;28;20162;-84
2021/09/07 02:56:38;;;;;;;11.27;9.80;;;15.00;99.90;;;;;;5101534;28;20421;-84
2021/09/07 02:59:04;;;;;;;12.20;10.90;;;15.00;99.90;;;;;;5119173;28;20466;-84
2021/09/07 03:01:30;;;;;;;12.83;10.77;;;14.90;99.90;;;;;;5101926;28;20397;-83
2021/09/07 03:03:56;;;;;;;11.07;9.80;;;14.90;99.90;;;;;;5119197;28;20400;-83
2021/09/07 03:06:22;;;;;;;11.10;9.90;;;14.90;99.90;;;;;;5114011;28;20186;-84
2021/09/07 03:08:48;;;;;;;10.70;9.30;;;15.00;99.90;;;;;;5078079;28;20190;-84
2021/09/07 03:11:13;;;;;;;10.10;8.93;;;14.70;99.90;;;;;;5080471;28;20163;-82
2021/09/07 03:13:40;;;;;;;12.87;8.97;;;14.70;99.90;;;;;;5100187;28;20405;-83
2021/09/07 03:16:06;;;;;;;13.43;9.37;;;14.70;99.90;;;;;;5099564;28;20158;-84
2021/09/07 03:18:32;;;;;;;13.17;10.10;;;14.70;99.90;;;;;;5109956;28;20436;-84
2021/09/07 03:20:58;;;;;;;9.93;8.83;;;14.70;99.90;;;;;;5087663;28;20482;-84
2021/09/07 03:23:24;;;;;;;11.83;8.93;;;14.80;99.90;;;;;;5106520;28;20169;-84
2021/09/07 03:25:50;;;;;;;14.40;9.37;;;14.80;99.90;;;;;;5071889;28;20396;-84
2021/09/07 03:28:16;;;;;;;11.20;10.10;;;14.70;99.90;;;;;;5105270;28;20404;-83
2021/09/07 03:30:42;;;;;;;12.70;9.77;;;14.80;99.90;;;;;;5104597;28;20397;-84
2021/09/07 03:33:07;;;;;;;9.60;8.37;;;14.80;99.90;;;;;;5088545;28;20401;-83
2021/09/07 03:35:33;;;;;;;11.40;9.17;;;14.70;99.90;;;;;;5104993;28;20526;-83
2021/09/07 03:37:59;;;;;;;12.37;9.60;;;14.80;99.90;;;;;;5087630;28;20233;-84
2021/09/07 03:40:26;;;;;;;11.00;9.93;;;14.70;99.90;;;;;;5086037;28;20163;-83
2021/09/07 03:42:51;;;;;;;14.10;9.10;;;14.60;99.90;;;;;;5104261;28;20476;-83
2021/09/07 03:45:18;;;;;;;11.87;9.33;;;14.70;99.90;;;;;;5086602;28;20396;-84
2021/09/07 03:47:45;;;;;;;13.23;9.50;;;14.70;99.90;;;;;;5105834;28;20232;-83
2021/09/07 03:50:14;;;;;;;9.90;8.90;;;14.70;99.90;;;;;;5086420;28;20419;-84
2021/09/07 03:52:39;;;;;;;12.43;9.80;;;14.60;99.90;;;;;;5069796;28;20900;-83
2021/09/07 03:55:06;;;;;;;9.33;8.43;;;14.70;99.90;;;;;;5086943;28;20488;-83
2021/09/07 03:57:32;;;;;;;11.80;10.20;;;14.80;99.90;;;;;;5086848;28;20250;-83
2021/09/07 03:59:58;;;;;;;11.87;9.30;;;14.80;99.90;;;;;;5105217;28;20410;-83
2021/09/07 04:02:25;;;;;;;9.10;8.20;;;14.90;99.90;;;;;;5088925;28;20167;-83
2021/09/07 04:04:51;;;;;;;12.43;9.10;;;14.90;99.90;;;;;;5087978;28;20167;-83
2021/09/07 04:07:17;;;;;;;11.20;9.40;;;15.00;99.90;;;;;;5070324;28;20412;-84
2021/09/07 04:09:43;;;;;;;9.80;8.53;;;15.00;99.90;;;;;;5086937;28;20430;-84
2021/09/07 04:12:09;;;;;;;11.17;9.97;;;15.00;99.90;;;;;;5105164;28;20435;-83
2021/09/07 04:14:35;;;;;;;18.40;9.90;;;15.10;99.90;;;;;;5099430;28;20171;-83
2021/09/07 04:17:02;;;;;;;13.53;9.47;;;15.20;99.90;;;;;;5096125;28;20426;-83
2021/09/07 04:19:28;;;;;;;12.47;9.63;;;15.10;99.90;;;;;;5097895;28;20229;-84
2021/09/07 04:21:54;;;;;;;9.93;8.87;;;15.20;99.90;;;;;;5065344;28;20413;-84
2021/09/07 04:24:20;;;;;;;10.47;9.33;;;15.40;99.90;;;;;;5098680;28;20182;-84
2021/09/07 04:26:45;;;;;;;11.30;9.20;;;15.60;99.90;;;;;;5066334;28;20151;-84
2021/09/07 04:29:11;;;;;;;21.33;9.70;;;15.60;99.90;;;;;;5099385;28;20198;-84
2021/09/07 04:31:37;;;;;;;14.43;10.63;;;15.50;99.90;;;;;;5099828;28;20167;-84
2021/09/07 04:34:03;;;;;;;9.50;7.50;;;15.40;99.90;;;;;;5117613;28;20180;-84
2021/09/07 04:36:29;;;;;;;11.23;9.37;;;15.30;99.90;;;;;;5083663;28;20178;-84
2021/09/07 04:38:55;;;;;;;10.67;9.57;;;15.30;99.90;;;;;;5098270;28;20238;-84
2021/09/07 04:41:21;;;;;;;11.50;8.97;;;15.10;99.90;;;;;;5099760;28;20464;-84
2021/09/07 04:43:47;;;;;;;13.63;9.10;;;15.10;99.90;;;;;;5084259;28;20226;-83
2021/09/07 04:46:15;;;;;;;16.40;9.87;;;15.10;99.90;;;;;;5100521;28;20476;-84
2021/09/07 04:48:40;;;;;;;12.00;10.17;;;15.00;99.90;;;;;;5100163;28;20396;-83
2021/09/07 04:51:06;;;;;;;11.70;9.40;;;15.00;99.90;;;;;;5117763;28;20410;-83
2021/09/07 04:53:32;;;;;;;11.20;9.80;;;15.10;99.90;;;;;;5083308;23;20236;-83
2021/09/07 04:55:58;;;;;;;13.13;9.67;;;15.10;99.90;;;;;;5040360;28;20180;-84
2021/09/07 04:58:24;;;;;;;10.60;9.27;;;15.10;99.90;;;;;;5060531;28;20481;-83
2021/09/07 05:00:50;;;;;;;14.47;9.90;;;15.10;99.90;;;;;;5044299;28;20167;-82
2021/09/07 05:03:15;;;;;;;10.50;9.50;;;15.00;99.90;;;;;;5060808;28;20181;-84
2021/09/07 05:05:41;;;;;;;12.27;9.33;;;14.90;99.90;;;;;;5060462;28;20207;-83
2021/09/07 05:08:07;;;;;;;10.77;9.67;;;14.90;99.90;;;;;;5057124;28;20260;-83
2021/09/07 05:10:33;;;;;;;11.73;9.67;;;14.90;99.90;;;;;;5019218;28;20251;-82
2021/09/07 05:12:59;;;;;;;12.17;10.13;;;14.80;99.90;;;;;;5047464;28;20170;-84
2021/09/07 05:15:24;;;;;;;11.20;9.20;;;14.60;99.90;;;;;;5011083;28;20212;-84
2021/09/07 05:17:50;;;;;;;10.07;8.93;;;14.50;99.90;;;;;;5042959;28;20193;-84
2021/09/07 05:20:16;;;;;;;11.00;9.73;;;14.60;99.90;;;;;;5027786;28;20165;-84
2021/09/07 05:22:42;;;;;;;14.27;11.10;;;14.40;99.90;;;;;;5042589;28;20162;-84
2021/09/07 05:25:08;;;;;;;17.87;9.97;;;14.30;99.90;;;;;;5025898;28;20464;-84
2021/09/07 05:27:36;;;;;;;14.33;10.57;;;14.50;99.90;;;;;;5027056;28;20412;-84
2021/09/07 05:30:04;;;;;;;10.37;9.23;;;14.50;99.90;;;;;;5009082;28;20474;-84
2021/09/07 05:32:30;;;;;;;11.30;10.13;;;14.60;99.90;;;;;;5024246;28;20784;-84
2021/09/07 05:34:55;;;;;;;11.37;10.20;;;14.40;99.90;;;;;;5022899;28;20433;-84
2021/09/07 05:37:21;;;;;;;15.20;10.53;;;14.50;99.90;;;;;;5007117;28;20169;-83
2021/09/07 05:39:47;;;;;;;16.73;11.00;;;14.60;99.90;;;;;;5039681;28;20243;-84
2021/09/07 05:42:13;;;;;;;15.00;10.40;;;14.60;99.90;;;;;;5005409;28;20166;-83
2021/09/07 05:44:39;;;;;;;14.60;11.70;;;14.70;99.90;;;;;;5040065;28;20180;-84
2021/09/07 05:47:06;;;;;;;16.10;11.77;;;14.70;99.90;;;;;;5038964;28;20455;-84
2021/09/07 05:49:32;;;;;;;12.80;11.20;;;14.90;99.90;;;;;;5038531;28;20438;-84
2021/09/07 05:51:59;;;;;;;12.20;11.00;;;14.80;99.90;;;;;;5038986;28;20431;-84
2021/09/07 05:54:24;;;;;;;11.90;9.47;;;14.80;99.90;;;;;;5026719;28;20460;-84
2021/09/07 05:56:50;;;;;;;12.63;11.27;;;14.90;99.90;;;;;;5026324;28;20889;-84
2021/09/07 05:59:17;;;;;;;17.93;11.07;;;14.90;99.90;;;;;;5024723;28;20234;-83
2021/09/07 06:01:43;;;;;;;18.33;12.90;;;14.90;99.90;;;;;;5026188;28;20487;-83
2021/09/07 06:04:10;;;;;;;13.93;11.07;;;14.80;99.90;;;;;;5027422;28;20428;-82
2021/09/07 06:06:36;;;;;;;13.70;10.73;;;14.90;99.90;;;;;;5025707;28;20416;-84
2021/09/07 06:09:02;;;;;;;11.70;10.17;;;15.10;99.90;;;;;;5026381;28;20447;-84
2021/09/07 06:11:28;;;;;;;17.20;11.03;;;15.20;99.90;;;;;;5026491;28;20834;-84
2021/09/07 06:13:53;;;;;;;12.50;10.83;;;15.20;99.90;;;;;;5021387;28;20169;-85
2021/09/07 06:16:21;;;;;;;12.70;11.40;;;15.20;99.90;;;;;;5025842;28;20180;-84
2021/09/07 06:19:07;;;;;;;11.20;9.80;;;15.20;99.90;;;;;;5022911;28;20212;-85
2021/09/07 06:21:33;;;;;;;17.50;11.13;;;15.10;99.90;;;;;;4999030;28;20544;-85
2021/09/07 06:24:00;;;;;;;14.77;10.70;;;15.30;99.90;;;;;;5004189;28;20425;-84
2021/09/07 06:26:26;;;;;;;11.50;10.20;;;15.50;99.90;;;;;;5003969;28;20182;-85
2021/09/07 06:28:52;;;;;;;14.70;13.00;;;15.40;99.90;;;;;;4998695;28;20435;-84
2021/09/07 06:31:18;;;;;;;11.93;10.70;;;15.30;99.90;;;;;;4988012;28;20441;-85
2021/09/07 06:33:44;;;;;;;12.43;11.10;;;15.30;99.90;;;;;;5012453;28;20181;-83
2021/09/07 06:36:10;;;;;;;13.70;12.30;;;15.40;99.90;;;;;;5012865;28;20212;-85
2021/09/07 06:38:36;;;;;;;14.73;11.27;;;15.60;99.90;;;;;;5015132;28;20197;-85
2021/09/07 06:41:06;;;;;;;14.53;12.17;;;15.70;99.90;;;;;;5013447;28;20431;-85
2021/09/07 06:43:35;;;;;;;13.60;11.93;;;15.60;99.90;;;;;;4984219;28;20182;-85
2021/09/07 06:46:03;;;;;;;18.40;13.57;;;15.60;99.90;;;;;;4948251;29;20435;-85
2021/09/07 06:48:28;;;;;;;16.67;11.30;;;15.80;99.90;;;;;;4948977;29;20454;-85
2021/09/07 06:50:54;;;;;;;14.30;12.40;;;15.80;99.90;;;;;;4932836;29;20443;-86
2021/09/07 06:53:21;;;;;;;17.43;13.30;;;15.80;99.90;;;;;;4947806;29;20223;-84
2021/09/07 06:55:47;;;;;;;12.23;10.97;;;16.10;99.90;;;;;;4948060;29;20437;-84
2021/09/07 06:58:14;;;;;;;12.90;11.60;;;16.00;99.90;;;;;;4948917;29;20553;-85
2021/09/07 07:00:39;;;;;;;13.30;11.17;;;15.80;99.90;;;;;;4939741;29;20198;-84
2021/09/07 07:03:05;;;;;;;16.37;11.77;;;15.90;99.90;;;;;;4965090;29;20570;-84
2021/09/07 07:05:31;;;;;;;13.67;11.23;;;15.90;99.90;;;;;;4947566;29;20160;-86
2021/09/07 07:07:57;;;;;;;17.27;13.80;;;15.80;99.90;;;;;;4931005;29;20215;-84
2021/09/07 07:10:22;;;;;;;12.77;11.50;;;16.10;99.90;;;;;;4945409;29;20179;-85
2021/09/07 07:12:48;;;;;;;15.20;11.67;;;16.20;99.90;;;;;;4945306;29;20187;-84
2021/09/07 07:15:14;;;;;;;12.83;11.57;;;16.20;99.90;;;;;;4975687;28;20714;-84
2021/09/07 07:17:40;;;;;;;14.20;11.10;;;16.30;99.90;;;;;;4962722;28;20257;-83
2021/09/07 07:20:07;;;;;;;13.23;11.90;;;16.50;99.90;;;;;;4961459;28;20285;-84
2021/09/07 07:22:33;;;;;;;13.13;11.77;;;16.90;99.90;;;;;;4963982;28;20548;-84
2021/09/07 07:24:59;;;;;;;19.10;13.03;;;17.20;99.90;;;;;;5009600;28;20464;-84
2021/09/07 07:27:25;;;;;;;13.97;12.47;;;17.40;99.90;;;;;;5001212;28;20168;-84
2021/09/07 07:29:51;;;;;;;16.43;11.70;;;17.60;99.90;;;;;;5003330;28;20192;-84
2021/09/07 07:32:16;;;;;;;14.27;12.90;;;17.30;99.90;;;;;;5020793;28;20169;-84
2021/09/07 07:34:42;;;;;;;20.87;14.10;;;17.30;99.90;;;;;;5018678;28;20181;-84
2021/09/07 07:37:08;;;;;;;13.17;11.67;;;17.80;99.90;;;;;;4987519;28;20299;-85
2021/09/07 07:39:35;;;;;;;36.17;12.83;;;18.00;99.90;;;;;;5020493;28;20212;-84
2021/09/07 07:42:02;;;;;;;16.70;12.93;;;18.10;99.90;;;;;;4984369;28;20441;-84
2021/09/07 07:44:28;;;;;;;15.67;12.73;;;18.20;99.90;;;;;;5018420;28;20413;-84
2021/09/07 07:46:54;;;;;;;15.87;13.40;;;18.20;99.90;;;;;;4969094;28;20936;-84
2021/09/07 07:49:20;;;;;;;22.20;13.57;;;18.30;99.90;;;;;;4963146;28;20205;-84
2021/09/07 07:51:46;;;;;;;21.77;13.33;;;18.50;99.90;;;;;;4990763;28;20432;-84
2021/09/07 07:54:13;;;;;;;19.33;12.83;;;18.50;99.90;;;;;;4993837;28;20729;-85
2021/09/07 07:56:39;;;;;;;16.80;13.30;;;18.70;99.90;;;;;;4995704;28;20190;-84
2021/09/07 07:59:05;;;;;;;17.50;13.73;;;18.70;99.90;;;;;;4992608;28;20551;-84
2021/09/07 08:01:32;;;;;;;14.70;12.40;;;18.80;99.90;;;;;;5002617;28;20519;-85
2021/09/07 08:03:58;;;;;;;13.70;12.33;;;18.50;99.90;;;;;;5020601;28;20428;-84
2021/09/07 08:06:24;;;;;;;14.83;13.33;;;18.30;99.90;;;;;;4987614;28;20465;-84
2021/09/07 08:08:51;;;;;;;15.90;13.80;;;18.70;99.90;;;;;;5015474;28;20486;-85
2021/09/07 08:11:17;;;;;;;15.20;13.10;;;19.00;99.90;;;;;;5020595;28;20515;-84
2021/09/07 08:13:43;;;;;;;17.87;14.00;;;19.20;99.90;;;;;;5020330;28;20523;-84
2021/09/07 08:16:09;;;;;;;17.13;12.60;;;19.40;99.90;;;;;;5017207;28;20460;-84
2021/09/07 08:18:35;;;;;;;14.17;12.73;;;19.60;99.90;;;;;;5001756;28;20212;-84
2021/09/07 08:21:05;;;;;;;15.47;13.87;;;19.60;99.90;;;;;;5003733;28;20430;-84
2021/09/07 08:23:31;;;;;;;16.20;14.27;;;19.60;99.90;;;;;;4988158;28;20420;-85
2021/09/07 08:25:57;;;;;;;27.97;14.30;;;19.60;99.90;;;;;;5015538;28;20419;-85
2021/09/07 08:28:23;;;;;;;16.83;12.97;;;19.20;99.90;;;;;;5021636;28;20434;-84
2021/09/07 08:30:49;;;;;;;22.40;13.67;;;19.10;99.90;;;;;;5021984;28;20231;-85
2021/09/07 08:33:34;;;;;;;14.50;13.10;;;19.20;99.90;;;;;;5011358;28;20208;-85
2021/09/07 08:36:02;;;;;;;17.50;12.70;;;19.50;99.90;;;;;;5006214;28;20495;-85
2021/09/07 08:38:30;;;;;;;14.93;13.27;;;19.70;99.90;;;;;;4996592;28;20289;-85
2021/09/07 08:40:57;;;;;;;15.47;13.50;;;20.00;99.90;;;;;;4993302;28;20932;-84
2021/09/07 08:43:24;;;;;;;14.10;12.33;;;19.90;99.90;;;;;;5009168;28;20661;-85
2021/09/07 08:45:52;;;;;;;15.40;12.00;;;20.00;99.90;;;;;;5024493;28;20484;-85
2021/09/07 08:48:21;;;;;;;12.70;11.23;;;20.40;99.90;;;;;;5007468;28;20476;-85
2021/09/07 08:50:48;;;;;;;12.83;11.47;;;20.20;99.90;;;;;;4992955;28;20416;-85
2021/09/07 08:53:14;;;;;;;15.93;12.13;;;20.00;99.90;;;;;;5008657;28;20476;-85
2021/09/07 08:55:40;;;;;;;13.90;11.53;;;20.30;99.90;;;;;;5023440;28;20431;-85
2021/09/07 08:58:07;;;;;;;12.63;11.43;;;20.40;99.90;;;;;;5025583;28;20458;-85
2021/09/07 09:00:34;;;;;;;12.40;11.07;;;20.90;99.90;;;;;;4992900;28;20220;-85
2021/09/07 09:03:10;;;;;;;15.67;11.43;;;20.50;99.90;;;;;;4990993;28;20428;-85
2021/09/07 09:05:35;;;;;;;13.03;10.67;;;20.40;99.90;;;;;;5032100;28;20494;-85
2021/09/07 09:08:01;;;;;;;12.97;11.43;;;20.50;99.90;;;;;;5008275;28;20412;-85
2021/09/07 09:10:30;;;;;;;12.57;11.30;;;20.90;99.90;;;;;;5023532;28;20227;-85
2021/09/07 09:13:06;;;;;;;10.73;9.70;;;21.00;99.90;;;;;;5026104;28;20448;-86
2021/09/07 09:15:32;;;;;;;11.73;10.53;;;21.40;99.90;;;;;;5016622;28;20495;-85
2021/09/07 09:18:09;;;;;;;10.80;9.70;;;21.60;99.90;;;;;;5026691;28;20455;-85
2021/09/07 09:20:36;;;;;;;16.63;11.43;;;21.40;99.90;;;;;;5019048;28;20421;-85
2021/09/07 09:23:04;;;;;;;13.43;10.93;;;21.60;99.90;;;;;;4992625;28;20521;-86
2021/09/07 09:25:33;;;;;;;12.97;11.63;;;21.60;99.90;;;;;;5009448;28;20428;-86
2021/09/07 09:28:13;;;;;;;11.57;9.67;;;21.50;99.90;;;;;;5024765;28;20452;-85
2021/09/07 09:30:45;;;;;;;15.97;11.57;;;21.20;99.90;;;;;;5027208;28;20428;-85
2021/09/07 09:33:14;;;;;;;13.33;11.93;;;21.30;99.90;;;;;;5027400;28;20416;-85
2021/09/07 09:35:52;;;;;;;12.17;10.57;;;21.70;99.90;;;;;;4984150;28;20525;-85
2021/09/07 09:38:20;;;;;;;13.80;11.33;;;21.60;99.90;;;;;;5016976;28;20464;-85
2021/09/07 09:40:57;;;;;;;11.47;10.27;;;21.60;99.90;;;;;;5015103;28;20426;-85
2021/09/07 09:43:33;;;;;;;14.83;11.47;;;22.30;99.90;;;;;;5022317;28;20526;-85
2021/09/07 09:46:18;;;;;;;11.57;10.50;;;22.80;99.90;;;;;;5023787;28;20423;-85
2021/09/07 09:48:44;;;;;;;11.43;10.30;;;22.60;99.90;;;;;;5018992;28;20909;-85
2021/09/07 09:51:16;;;;;;;11.70;9.70;;;23.20;99.90;;;;;;4998901;28;20440;-85
2021/09/07 09:53:45;;;;;;;12.10;10.80;;;23.50;99.90;;;;;;4973102;28;20467;-85
2021/09/07 09:56:14;;;;;;;16.97;10.57;;;23.60;99.90;;;;;;5023859;28;20507;-85
2021/09/07 09:58:41;;;;;;;14.13;12.80;;;23.50;99.90;;;;;;5024130;28;20605;-85
2021/09/07 10:01:08;;;;;;;13.23;11.40;;;23.40;99.90;;;;;;4997159;28;20471;-85
2021/09/07 10:03:34;;;;;;;14.63;11.00;;;23.30;99.90;;;;;;4990153;28;20424;-85
2021/09/07 10:06:00;;;;;;;12.00;10.43;;;23.00;99.90;;;;;;5007619;28;20450;-85
2021/09/07 10:08:26;;;;;;;16.67;10.67;;;23.60;99.90;;;;;;5023887;28;20260;-85
2021/09/07 10:10:58;;;;;;;11.60;10.40;;;23.70;99.90;;;;;;4981902;28;20437;-85
2021/09/07 10:13:27;;;;;;;10.97;9.70;;;24.70;99.90;;;;;;4995653;28;20651;-85
2021/09/07 10:15:58;;;;;;;13.03;11.53;;;24.90;99.90;;;;;;5023237;28;20913;-85
2021/09/07 10:18:48;;;;;;;11.30;10.17;;;25.60;99.90;;;;;;5004860;28;20467;-85
2021/09/07 10:24:51;;;;;;;11.70;10.60;;;26.30;99.90;;;;;;4990350;28;20425;-85
2021/09/07 10:27:17;;;;;;;12.10;10.60;;;26.20;99.90;;;;;;4990235;28;20429;-86
2021/09/07 10:29:44;;;;;;;12.07;10.97;;;26.10;99.90;;;;;;4985367;28;20451;-85
2021/09/07 10:32:28;;;;;;;12.90;10.47;;;26.40;99.90;;;;;;4991306;28;20248;-86
2021/09/07 10:35:06;;;;;;;10.93;9.40;;;27.00;99.90;;;;;;4964935;28;20425;-86
2021/09/07 10:37:59;;;;;;;11.47;10.37;;;27.60;99.90;;;;;;4994498;28;20428;-86
2021/09/07 10:40:40;;;;;;;10.57;8.80;;;27.80;99.90;;;;;;4983301;28;20425;-86
2021/09/07 10:43:45;;;;;;;11.43;10.30;;;27.80;99.90;;;;;;4993678;28;20437;-86
2021/09/07 10:46:11;;;;;;;12.30;11.10;;;27.30;99.90;;;;;;4993411;28;20871;-86
2021/09/07 10:48:37;;;;;;;12.60;9.97;;;26.50;99.90;;;;;;4952221;28;20436;-86
2021/09/07 10:51:04;;;;;;;11.60;10.50;;;25.50;99.90;;;;;;4972004;28;20190;-86
2021/09/07 10:53:30;;;;;;;12.57;10.17;;;25.30;99.90;;;;;;4984378;28;20272;-86
2021/09/07 10:56:24;;;;;;;15.70;12.33;;;25.30;99.90;;;;;;4976659;28;20431;-86
2021/09/07 10:58:51;;;;;;;11.90;9.70;;;24.60;99.90;;;;;;5021920;28;20467;-86
2021/09/07 11:01:27;;;;;;;11.07;10.07;;;25.60;99.90;;;;;;4982004;28;20409;-85
2021/09/07 11:04:19;;;;;;;13.60;10.90;;;25.70;99.90;;;;;;4998816;28;20907;-85
2021/09/07 11:06:44;;;;;;;12.23;11.03;;;26.60;99.90;;;;;;5002446;28;20404;-86
2021/09/07 11:09:50;;;;;;;14.50;10.67;;;25.50;99.90;;;;;;4985636;28;20447;-85
2021/09/07 11:12:29;;;;;;;11.20;10.20;;;25.80;99.90;;;;;;5014032;28;20223;-85
2021/09/07 11:15:04;;;;;;;11.60;9.70;;;26.40;99.90;;;;;;5003644;28;20431;-86
2021/09/07 11:17:31;;;;;;;10.13;8.87;;;27.00;99.90;;;;;;4990886;28;20511;-86
2021/09/07 11:19:59;;;;;;;14.40;11.57;;;27.40;99.90;;;;;;5008035;28;20439;-86
2021/09/07 11:22:27;;;;;;;11.70;9.40;;;27.40;99.90;;;;;;4986871;28;20435;-86
2021/09/07 11:25:05;;;;;;;14.80;9.13;;;27.80;99.90;;;;;;5024164;28;20422;-86
2021/09/07 11:27:50;;;;;;;9.27;7.87;;;27.50;99.90;;;;;;5022229;28;20412;-86
2021/09/07 11:30:21;;;;;;;10.90;9.90;;;28.10;99.90;;;;;;5005650;28;20477;-85
2021/09/07 11:32:47;;;;;;;10.10;9.20;;;27.90;99.90;;;;;;4989705;28;20397;-86
2021/09/07 11:35:13;;;;;;;11.20;10.07;;;27.40;99.90;;;;;;5018048;28;20465;-86
2021/09/07 11:37:42;;;;;;;12.27;11.10;;;26.80;99.90;;;;;;5021114;28;20178;-86
2021/09/07 11:40:12;;;;;;;12.47;9.97;;;27.10;99.90;;;;;;5016629;28;20275;-85
2021/09/07 11:42:48;;;;;;;11.60;10.43;;;27.60;99.90;;;;;;5005904;28;20396;-86
2021/09/07 11:45:26;;;;;;;14.07;10.57;;;27.90;99.90;;;;;;5008135;28;20172;-86
2021/09/07 11:47:53;;;;;;;9.90;8.95;;;28.20;99.90;;;;;;4990488;28;20384;-86
2021/09/07 11:50:23;;;;;;;9.10;8.30;;;27.70;99.90;;;;;;5003530;28;20280;-87
2021/09/07 11:52:51;;;;;;;9.70;8.75;;;28.20;99.90;;;;;;5002665;28;20240;-86
2021/09/07 11:55:38;;;;;;;9.02;7.80;;;26.90;99.90;;;;;;4970485;28;20320;-87
2021/09/07 11:58:05;;;;;;;10.57;8.90;;;26.90;99.90;;;;;;4967332;28;20278;-86
2021/09/07 12:00:32;;;;;;;8.88;7.85;;;27.60;99.90;;;;;;4967453;28;20192;-86
2021/09/07 12:03:13;;;;;;;9.63;8.63;;;27.40;99.90;;;;;;4970522;28;20213;-87
2021/09/07 12:05:52;;;;;;;8.95;8.15;;;27.80;99.90;;;;;;4970885;28;20193;-86
2021/09/07 12:08:19;;;;;;;10.52;9.63;;;27.20;99.90;;;;;;4971934;28;20209;-86
2021/09/07 12:10:54;;;;;;;10.60;9.52;;;27.20;99.90;;;;;;4972252;28;20214;-86
2021/09/07 12:13:22;;;;;;;9.03;8.23;;;26.10;99.90;;;;;;4968689;28;20192;-86
2021/09/07 12:15:49;;;;;;;10.23;9.30;;;26.90;99.90;;;;;;4953850;28;20413;-85
2021/09/07 12:18:34;;;;;;;8.90;8.10;;;27.90;99.90;;;;;;4971720;28;20182;-86
2021/09/07 12:21:13;;;;;;;9.30;8.50;;;27.60;99.90;;;;;;4972704;28;20409;-86
2021/09/07 12:23:48;;;;;;;8.70;7.60;;;27.60;99.90;;;;;;4987760;28;20443;-86
2021/09/07 12:26:15;;;;;;;10.07;9.07;;;28.50;99.90;;;;;;4971317;28;20444;-85
2021/09/07 12:28:43;;;;;;;14.70;9.10;;;28.70;99.90;;;;;;5001503;28;20459;-86
2021/09/07 12:31:15;;;;;;;9.77;8.73;;;28.50;99.90;;;;;;5042988;28;20428;-86
2021/09/07 12:33:52;;;;;;;9.23;8.33;;;27.20;99.90;;;;;;5010668;28;20404;-86
2021/09/07 12:36:21;;;;;;;9.80;8.90;;;27.50;99.90;;;;;;5029150;28;20403;-86
2021/09/07 12:38:49;;;;;;;9.93;9.10;;;28.50;99.90;;;;;;5044834;28;21033;-86